Time;durP1;ratioP1;P1;durP2;ratioP2;P2;SDS_P1;SDS_P2;PMS_P1;PMS_P2;Temp;Humidity;BMP_temperature;BMP_pressure;BME280_temperature;BME280_humidity;BME280_pressure;Samples;Min_cycle;Max_cycle;Signal;HPM_P1;HPM_P2
2022/10/04 00:01:50;;;;;;;1.95;0.20;;;;;;;9.46;100.00;98503.87;1735313;82;21546;-60
2022/10/04 00:04:34;;;;;;;1.98;0.28;;;;;;;9.46;100.00;98507.33;1740880;80;21608;-59
2022/10/04 00:07:18;;;;;;;0.20;0.20;;;;;;;9.46;100.00;98498.15;1729661;81;21761;-60
2022/10/04 00:09:53;;;;;;;0.20;0.20;;;;;;;9.50;100.00;98503.59;1710851;81;21546;-60
2022/10/04 00:12:48;;;;;;;0.13;0.13;;;;;;;9.51;100.00;98501.81;1704715;83;21586;-59
2022/10/04 00:15:22;;;;;;;2.27;0.20;;;;;;;9.52;100.00;98501.73;1647304;85;21481;-60
2022/10/04 00:18:20;;;;;;;0.40;0.30;;;;;;;9.50;100.00;98496.20;1648718;85;21506;-62
2022/10/04 00:20:55;;;;;;;0.30;0.15;;;;;;;9.50;100.00;98492.27;1639591;85;21514;-61
2022/10/04 00:23:28;;;;;;;0.40;0.40;;;;;;;9.54;100.00;98497.23;1645377;85;21065;-61
2022/10/04 00:26:01;;;;;;;2.02;0.30;;;;;;;9.58;100.00;98493.97;1645634;85;21067;-63
2022/10/04 00:28:33;;;;;;;0.35;0.35;;;;;;;9.61;100.00;98499.06;1642992;85;21483;-61
2022/10/04 00:31:26;;;;;;;0.50;0.50;;;;;;;9.67;100.00;98501.33;1659031;83;21458;-60
2022/10/04 00:34:13;;;;;;;2.47;0.40;;;;;;;9.68;100.00;98501.72;1666834;84;21739;-59
2022/10/04 00:36:49;;;;;;;0.30;0.30;;;;;;;9.74;100.00;98499.20;1638281;86;21529;-60
2022/10/04 00:39:24;;;;;;;0.98;0.30;;;;;;;9.72;100.00;98501.91;1620783;84;21495;-60
2022/10/04 00:41:59;;;;;;;0.37;0.37;;;;;;;9.80;100.00;98500.16;1665541;83;21550;-61
2022/10/04 00:45:00;;;;;;;0.50;0.40;;;;;;;9.79;100.00;98507.64;1684979;82;21013;-60
2022/10/04 00:47:35;;;;;;;0.40;0.30;;;;;;;9.78;100.00;98508.59;1679376;83;21782;-59
2022/10/04 00:50:15;;;;;;;1.25;0.40;;;;;;;9.79;100.00;98516.83;1669912;84;21440;-60
2022/10/04 00:52:49;;;;;;;0.50;0.30;;;;;;;9.84;100.00;98520.52;1670312;83;21519;-61
2022/10/04 00:55:28;;;;;;;0.20;0.20;;;;;;;9.88;100.00;98514.98;1675449;84;21570;-61
2022/10/04 00:57:58;;;;;;;0.20;0.20;;;;;;;9.91;100.00;98515.30;1683095;83;21565;-61
2022/10/04 01:00:25;;;;;;;4.75;0.40;;;;;;;9.96;100.00;98515.85;1683006;83;21585;-60
2022/10/04 01:03:10;;;;;;;0.10;0.10;;;;;;;10.02;100.00;98515.52;1663353;84;21021;-61
2022/10/04 01:05:44;;;;;;;0.98;0.20;;;;;;;10.05;100.00;98515.80;1680651;84;21438;-61
2022/10/04 01:08:19;;;;;;;0.42;0.35;;;;;;;10.05;100.00;98510.55;1683557;83;21563;-60
2022/10/04 01:11:01;;;;;;;1.65;0.30;;;;;;;10.10;100.00;98511.97;1678884;83;21580;-59
2022/10/04 01:13:38;;;;;;;0.30;0.30;;;;;;;10.00;100.00;98510.83;1688270;83;21764;-61
2022/10/04 01:16:24;;;;;;;0.15;0.15;;;;;;;9.96;100.00;98516.33;1685048;83;21464;-59
2022/10/04 01:18:51;;;;;;;0.53;0.20;;;;;;;9.93;100.00;98515.58;1681786;83;21514;-60
2022/10/04 01:21:25;;;;;;;0.30;0.20;;;;;;;10.02;100.00;98516.83;1686508;82;21486;-59
2022/10/04 01:24:01;;;;;;;0.30;0.30;;;;;;;10.05;100.00;98523.20;1682510;84;21557;-59
2022/10/04 01:26:35;;;;;;;0.30;0.30;;;;;;;10.10;100.00;98525.09;1683077;84;21772;-59
2022/10/04 01:29:14;;;;;;;0.37;0.30;;;;;;;10.10;100.00;98514.59;1693438;82;21514;-59
2022/10/04 01:31:47;;;;;;;0.93;0.40;;;;;;;10.16;100.00;98522.58;1657264;84;21556;-60
2022/10/04 01:34:19;;;;;;;0.30;0.30;;;;;;;10.17;100.00;98522.97;1683573;84;21549;-59
2022/10/04 01:36:48;;;;;;;0.20;0.20;;;;;;;10.20;100.00;98515.36;1686335;82;21638;-59
2022/10/04 01:39:16;;;;;;;0.40;0.40;;;;;;;10.17;100.00;98509.84;1688768;83;21815;-59
2022/10/04 01:41:52;;;;;;;1.22;0.25;;;;;;;10.16;100.00;98517.80;1689860;83;21002;-59
2022/10/04 01:44:43;;;;;;;0.20;0.20;;;;;;;10.07;100.00;98514.76;1680337;83;20950;-59
2022/10/04 01:47:15;;;;;;;0.98;0.30;;;;;;;10.09;100.00;98522.55;1681840;83;21815;-59
2022/10/04 01:49:42;;;;;;;0.40;0.40;;;;;;;10.13;100.00;98524.06;1684887;83;21072;-59
2022/10/04 01:52:21;;;;;;;1.67;0.20;;;;;;;10.17;100.00;98525.59;1690857;82;21839;-59
2022/10/04 01:54:52;;;;;;;0.30;0.30;;;;;;;10.16;100.00;98527.83;1687171;82;21548;-59
2022/10/04 01:57:22;;;;;;;0.50;0.50;;;;;;;10.09;100.00;98535.20;1677793;83;21439;-59
2022/10/04 02:00:06;;;;;;;1.72;0.40;;;;;;;10.11;100.00;98541.25;1683211;83;21515;-59
2022/10/04 02:02:54;;;;;;;0.20;0.20;;;;;;;10.13;100.00;98540.69;1692581;83;21585;-59
2022/10/04 02:05:37;;;;;;;0.40;0.30;;;;;;;10.17;100.00;98542.67;1683200;83;21810;-59
2022/10/04 02:08:10;;;;;;;0.60;0.50;;;;;;;10.16;100.00;98546.69;1678818;83;20957;-59
2022/10/04 02:13:29;;;;;;;1.10;0.40;;;;;;;9.52;100.00;98568.64;1776807;78;23045;-59
2022/10/04 02:15:57;;;;;;;0.30;0.30;;;;;;;10.07;100.00;98551.53;1725213;80;21462;-60
2022/10/04 02:18:24;;;;;;;0.20;0.20;;;;;;;10.12;100.00;98556.53;1735277;81;21827;-60
2022/10/04 02:20:50;;;;;;;1.32;0.30;;;;;;;10.03;100.00;98553.95;1700158;81;21564;-60
2022/10/04 02:23:18;;;;;;;0.30;0.30;;;;;;;10.05;100.00;98552.56;1662288;84;21506;-59
2022/10/04 02:25:45;;;;;;;0.30;0.30;;;;;;;10.11;100.00;98556.13;1700046;83;21017;-59
2022/10/04 02:28:14;;;;;;;0.33;0.30;;;;;;;10.15;100.00;98553.70;1689544;82;21004;-59
2022/10/04 02:33:42;;;;;;;0.95;0.50;;;;;;;10.18;100.00;98565.36;1703193;82;21488;-59
2022/10/04 02:36:09;;;;;;;1.65;0.50;;;;;;;10.21;100.00;98565.19;1693023;82;21870;-59
2022/10/04 02:38:41;;;;;;;0.42;0.42;;;;;;;10.21;100.00;98565.63;1697451;82;21559;-59
2022/10/04 02:41:25;;;;;;;0.75;0.57;;;;;;;10.23;100.00;98571.67;1698619;82;20972;-59
2022/10/04 02:44:00;;;;;;;0.33;0.33;;;;;;;10.26;100.00;98574.09;1685089;82;21845;-60
2022/10/04 02:46:52;;;;;;;0.42;0.42;;;;;;;10.24;100.00;98567.62;1695544;82;21504;-59
2022/10/04 02:49:39;;;;;;;2.80;0.40;;;;;;;10.24;100.00;98575.50;1695451;82;21573;-60
2022/10/04 02:52:28;;;;;;;1.15;0.50;;;;;;;10.28;100.00;98572.23;1695600;82;21530;-60
2022/10/04 02:55:05;;;;;;;1.47;0.40;;;;;;;10.28;100.00;98571.78;1690728;82;21566;-60
2022/10/04 02:57:32;;;;;;;;;;;;;;;10.30;100.00;98582.17;1692073;82;22277;-60
2022/10/04 03:00:19;;;;;;;0.40;0.40;;;;;;;10.23;100.00;98595.31;1701157;82;20503;-60
2022/10/04 03:03:16;;;;;;;0.45;0.30;;;;;;;10.27;100.00;98585.84;1692723;82;21508;-59
2022/10/04 03:05:47;;;;;;;0.33;0.33;;;;;;;10.23;100.00;98592.22;1689562;82;21507;-59
2022/10/04 03:08:13;;;;;;;1.12;0.50;;;;;;;10.33;100.00;98596.02;1695564;82;21619;-60
2022/10/04 03:10:41;;;;;;;0.95;0.55;;;;;;;10.41;100.00;98595.56;1692039;82;22180;-60
2022/10/04 03:13:08;;;;;;;1.00;0.40;;;;;;;10.43;100.00;98593.69;1685783;82;21566;-59
2022/10/04 03:15:34;;;;;;;0.55;0.40;;;;;;;10.41;100.00;98601.30;1680383;82;21539;-60
2022/10/04 03:18:01;;;;;;;0.57;0.50;;;;;;;10.48;100.00;98604.78;1695689;82;21062;-59
2022/10/04 03:20:28;;;;;;;3.10;0.50;;;;;;;10.47;100.00;98607.05;1685531;83;21582;-59
2022/10/04 03:22:55;;;;;;;1.07;0.68;;;;;;;10.49;100.00;98618.31;1695426;82;22109;-59
2022/10/04 03:25:27;;;;;;;1.22;0.60;;;;;;;10.38;100.00;98633.86;1691972;83;21086;-59
2022/10/04 03:27:59;;;;;;;0.40;0.40;;;;;;;10.38;100.00;98635.17;1689798;82;21504;-60
2022/10/04 03:30:26;;;;;;;0.42;0.40;;;;;;;10.42;100.00;98627.48;1691840;82;21439;-60
2022/10/04 03:32:52;;;;;;;0.50;0.50;;;;;;;10.47;100.00;98626.77;1695064;83;21593;-60
2022/10/04 03:35:33;;;;;;;1.47;0.50;;;;;;;10.49;100.00;98628.83;1697431;82;21856;-60
2022/10/04 03:38:02;;;;;;;1.02;0.85;;;;;;;10.54;100.00;98631.17;1666128;84;21490;-59
2022/10/04 03:40:30;;;;;;;0.20;0.20;;;;;;;10.60;100.00;98632.11;1723214;82;21586;-58
2022/10/04 03:42:58;;;;;;;0.23;0.20;;;;;;;10.58;100.00;98632.67;1735894;82;21061;-58
2022/10/04 03:45:26;;;;;;;2.30;0.30;;;;;;;10.54;100.00;98638.22;1736321;80;21435;-58
2022/10/04 03:47:53;;;;;;;0.20;0.20;;;;;;;10.49;100.00;98647.22;1724436;80;21923;-59
2022/10/04 03:50:28;;;;;;;1.12;0.30;;;;;;;10.46;100.00;98654.44;1689057;82;21071;-58
2022/10/04 03:53:03;;;;;;;2.08;0.40;;;;;;;10.46;100.00;98655.28;1692483;82;21026;-58
2022/10/04 03:55:37;;;;;;;0.20;0.20;;;;;;;10.41;100.00;98653.38;1678222;83;21517;-60
2022/10/04 03:58:07;;;;;;;0.17;0.13;;;;;;;10.34;100.00;98652.06;1725141;80;21478;-60
2022/10/04 04:00:39;;;;;;;0.60;0.20;;;;;;;10.33;100.00;98643.78;1720290;80;21384;-63
2022/10/04 04:03:06;;;;;;;0.17;0.13;;;;;;;10.25;100.00;98647.30;1735638;81;21021;-60
2022/10/04 04:05:44;;;;;;;0.42;0.30;;;;;;;10.19;100.00;98656.82;1732874;80;21499;-61
2022/10/04 04:08:34;;;;;;;0.28;0.23;;;;;;;10.10;100.00;98655.11;1736572;80;21562;-59
2022/10/04 04:11:03;;;;;;;0.10;0.10;;;;;;;9.99;100.00;98657.97;1734845;80;21515;-60
2022/10/04 04:13:44;;;;;;;0.35;0.10;;;;;;;9.92;100.00;98666.16;1740387;80;21821;-60
2022/10/04 04:16:11;;;;;;;0.10;0.10;;;;;;;9.92;100.00;98668.78;1731852;80;21519;-61
2022/10/04 04:18:42;;;;;;;0.10;0.10;;;;;;;9.85;100.00;98679.27;1728094;80;21504;-59
2022/10/04 04:21:09;;;;;;;0.10;0.10;;;;;;;9.83;100.00;98676.33;1734663;80;21108;-59
2022/10/04 04:23:59;;;;;;;1.87;0.10;;;;;;;9.86;100.00;98679.64;1735089;80;21399;-60
2022/10/04 04:26:39;;;;;;;2.20;0.20;;;;;;;9.88;100.00;98676.45;1735458;80;22118;-59
2022/10/04 04:29:35;;;;;;;0.17;0.17;;;;;;;9.88;100.00;98680.39;1731148;80;21585;-59
2022/10/04 04:32:27;;;;;;;0.20;0.20;;;;;;;9.88;100.00;98676.94;1742248;80;21538;-59
2022/10/04 04:34:59;;;;;;;0.20;0.20;;;;;;;9.87;100.00;98687.04;1738914;80;21463;-59
2022/10/04 04:37:26;;;;;;;0.20;0.10;;;;;;;9.89;100.00;98689.14;1738161;80;21419;-60
2022/10/04 04:39:56;;;;;;;0.40;0.30;;;;;;;9.90;100.00;98696.07;1738101;80;21506;-60
2022/10/04 04:42:32;;;;;;;0.10;0.10;;;;;;;9.86;100.00;98695.39;1726992;80;21574;-59
2022/10/04 04:45:07;;;;;;;1.62;0.20;;;;;;;9.84;100.00;98699.05;1657491;84;21534;-59
2022/10/04 04:47:40;;;;;;;0.10;0.10;;;;;;;9.86;100.00;98707.68;1668956;83;21483;-60
2022/10/04 04:50:23;;;;;;;0.20;0.20;;;;;;;9.86;100.00;98707.20;1706617;82;21424;-58
2022/10/04 04:52:53;;;;;;;0.20;0.20;;;;;;;9.86;100.00;98703.73;1658373;84;21755;-59
2022/10/04 04:55:25;;;;;;;0.15;0.15;;;;;;;9.88;100.00;98704.50;1696963;83;21524;-59
2022/10/04 04:57:54;;;;;;;0.10;0.10;;;;;;;9.90;100.00;98711.35;1689312;83;21509;-60
2022/10/04 05:00:26;;;;;;;1.05;0.20;;;;;;;9.93;100.00;98720.86;1699696;82;21496;-59
2022/10/04 05:02:57;;;;;;;0.30;0.20;;;;;;;9.94;100.00;98724.72;1695705;82;20958;-59
2022/10/04 05:05:30;;;;;;;0.20;0.20;;;;;;;9.92;100.00;98731.80;1686766;83;21895;-59
2022/10/04 05:08:23;;;;;;;0.45;0.10;;;;;;;9.96;100.00;98727.71;1692406;83;21558;-60
2022/10/04 05:11:11;;;;;;;1.85;0.20;;;;;;;9.88;100.00;98731.59;1699704;83;21545;-59
2022/10/04 05:13:50;;;;;;;0.20;0.20;;;;;;;9.91;100.00;98740.63;1662925;84;21064;-59
2022/10/04 05:16:22;;;;;;;0.20;0.20;;;;;;;9.90;100.00;98743.33;1700207;83;21577;-59
2022/10/04 05:18:58;;;;;;;0.30;0.20;;;;;;;9.90;100.00;98746.80;1688522;83;22052;-59
2022/10/04 05:21:29;;;;;;;0.28;0.28;;;;;;;9.92;100.00;98750.19;1728319;82;21426;-59
2022/10/04 05:23:57;;;;;;;0.30;0.30;;;;;;;9.98;100.00;98760.83;1732891;82;21527;-60
2022/10/04 05:26:28;;;;;;;0.30;0.30;;;;;;;9.97;100.00;98768.81;1723353;80;21506;-60
2022/10/04 05:28:57;;;;;;;2.05;0.30;;;;;;;10.03;100.00;98771.09;1722955;80;21419;-59
2022/10/04 05:31:29;;;;;;;0.42;0.30;;;;;;;10.10;100.00;98768.05;1732426;80;21820;-59
2022/10/04 05:33:57;;;;;;;0.60;0.30;;;;;;;10.16;100.00;98770.80;1727656;80;21476;-59
2022/10/04 05:36:54;;;;;;;0.60;0.40;;;;;;;10.16;100.00;98768.65;1725863;80;21547;-59
2022/10/04 05:39:48;;;;;;;0.98;0.60;;;;;;;10.16;100.00;98776.53;1684665;83;21628;-60
2022/10/04 05:42:25;;;;;;;1.07;0.40;;;;;;;10.20;100.00;98780.68;1691821;83;21518;-59
2022/10/04 05:44:54;;;;;;;0.72;0.50;;;;;;;10.23;100.00;98782.67;1729677;80;21916;-59
2022/10/04 05:47:25;;;;;;;1.22;0.40;;;;;;;10.30;100.00;98785.38;1730651;80;21499;-58
2022/10/04 05:49:56;;;;;;;1.45;0.50;;;;;;;10.32;100.00;98794.02;1730147;80;21600;-59
2022/10/04 05:52:35;;;;;;;0.85;0.50;;;;;;;10.36;100.00;98801.28;1737987;80;21558;-58
2022/10/04 05:55:28;;;;;;;1.10;0.85;;;;;;;10.44;100.00;98795.12;1701421;81;21519;-58
2022/10/04 05:58:35;;;;;;;0.50;0.50;;;;;;;10.47;100.00;98790.14;1733956;80;21845;-59
2022/10/04 06:01:19;;;;;;;0.75;0.40;;;;;;;10.49;100.00;98796.16;1730142;80;21498;-61
2022/10/04 06:03:53;;;;;;;0.78;0.50;;;;;;;10.63;100.00;98805.45;1686610;83;21561;-58
2022/10/04 06:06:48;;;;;;;1.25;0.62;;;;;;;10.65;100.00;98799.63;1725032;80;21041;-59
2022/10/04 06:09:44;;;;;;;0.42;0.40;;;;;;;10.74;100.00;98802.66;1704214;80;21570;-58
2022/10/04 06:12:42;;;;;;;1.50;0.40;;;;;;;10.81;100.00;98803.56;1731013;81;21849;-58
2022/10/04 06:15:54;;;;;;;1.32;0.50;;;;;;;10.76;100.00;98825.32;1720976;80;21648;-59
2022/10/04 06:18:34;;;;;;;0.93;0.50;;;;;;;10.83;100.00;98819.23;1734456;81;21507;-59
2022/10/04 06:21:21;;;;;;;0.45;0.45;;;;;;;10.89;100.00;98832.05;1731313;80;21526;-58
2022/10/04 06:24:04;;;;;;;3.83;0.60;;;;;;;10.89;100.00;98837.31;1736110;80;21601;-58
2022/10/04 06:26:51;;;;;;;0.75;0.53;;;;;;;10.90;100.00;98837.20;1726314;80;21879;-60
2022/10/04 06:29:25;;;;;;;3.63;1.17;;;;;;;10.94;100.00;98838.35;1726934;80;21547;-61
2022/10/04 06:32:30;;;;;;;2.12;0.70;;;;;;;10.97;100.00;98844.29;1661359;83;21564;-61
2022/10/04 06:35:36;;;;;;;3.05;2.85;;;;;;;11.06;100.00;98852.13;1731981;80;21527;-61
2022/10/04 06:38:11;;;;;;;2.00;1.90;;;;;;;11.08;100.00;98862.09;1724612;80;21610;-61
2022/10/04 06:41:03;;;;;;;1.60;1.50;;;;;;;11.13;100.00;98858.71;1742578;80;21808;-65
2022/10/04 06:43:58;;;;;;;0.90;0.90;;;;;;;11.20;100.00;98865.80;1717010;81;21503;-60
2022/10/04 06:46:51;;;;;;;1.47;0.70;;;;;;;11.08;100.00;98872.62;1688286;83;21517;-61
2022/10/04 06:49:40;;;;;;;1.00;0.55;;;;;;;11.07;100.00;98873.54;1677550;83;21443;-63
2022/10/04 06:52:53;;;;;;;1.05;0.75;;;;;;;11.07;100.00;98872.22;1734288;80;20935;-64
2022/10/04 06:55:52;;;;;;;0.75;0.72;;;;;;;11.05;100.00;98874.09;1731738;80;22190;-63
2022/10/04 06:58:36;;;;;;;3.27;1.07;;;;;;;11.06;100.00;98880.59;1741729;80;21609;-62
2022/10/04 07:01:33;;;;;;;0.78;0.55;;;;;;;11.18;100.00;98884.77;1680192;80;21503;-62
2022/10/04 07:04:30;;;;;;;1.07;0.95;;;;;;;11.25;100.00;98884.80;1723626;80;21558;-63
2022/10/04 07:07:37;;;;;;;0.93;0.55;;;;;;;11.30;100.00;98887.55;1736901;82;22584;-63
2022/10/04 07:10:39;;;;;;;0.98;0.80;;;;;;;11.36;100.00;98882.41;1725618;80;21765;-62
2022/10/04 07:13:40;;;;;;;0.80;0.70;;;;;;;11.43;100.00;98891.64;1728827;80;21585;-62
2022/10/04 07:16:30;;;;;;;2.83;0.98;;;;;;;11.46;100.00;98885.34;1738626;80;21424;-61
2022/10/04 07:19:11;;;;;;;1.32;1.00;;;;;;;11.49;100.00;98892.59;1733331;79;21431;-63
2022/10/04 07:22:00;;;;;;;0.60;0.60;;;;;;;11.60;100.00;98889.34;1699073;83;21450;-61
2022/10/04 07:24:58;;;;;;;1.05;0.80;;;;;;;11.71;100.00;98892.62;1699925;82;22007;-61
2022/10/04 07:29:19;;;;;;;2.55;0.72;;;;;;;11.68;100.00;98898.09;1698379;83;21454;-61
2022/10/04 07:30:21;;;;;;;0.82;0.82;;;;;;;11.78;100.00;98905.81;1685390;83;21506;-61
2022/10/04 07:32:50;;;;;;;2.65;0.90;;;;;;;11.78;100.00;98909.77;1692155;83;21424;-60
2022/10/04 07:35:31;;;;;;;1.60;0.70;;;;;;;11.80;100.00;98912.31;1683131;83;21482;-61
2022/10/04 07:38:15;;;;;;;1.15;0.80;;;;;;;11.79;100.00;98919.83;1676369;84;22060;-61
2022/10/04 07:41:10;;;;;;;1.37;0.60;;;;;;;11.75;100.00;98918.31;1668361;83;21456;-61
2022/10/04 07:43:54;;;;;;;1.12;0.68;;;;;;;11.73;100.00;98924.14;1703733;83;21478;-61
2022/10/04 07:46:51;;;;;;;2.02;0.85;;;;;;;11.67;100.00;98925.35;1662702;83;21561;-60
2022/10/04 07:49:20;;;;;;;0.90;0.82;;;;;;;11.71;100.00;98937.88;1700765;83;21541;-60
2022/10/04 07:52:22;;;;;;;1.20;1.10;;;;;;;11.63;100.00;98939.64;1692817;83;21808;-63
2022/10/04 07:55:17;;;;;;;2.83;1.05;;;;;;;11.62;100.00;98940.13;1700773;82;21636;-61
2022/10/04 07:57:50;;;;;;;1.15;1.07;;;;;;;11.62;100.00;98940.13;1682210;83;21577;-61
2022/10/04 08:00:21;;;;;;;1.00;0.90;;;;;;;11.62;100.00;98944.07;1693970;83;21577;-61
2022/10/04 08:03:10;;;;;;;1.05;1.00;;;;;;;11.66;100.00;98950.84;1686872;83;21466;-61
2022/10/04 08:05:44;;;;;;;3.55;1.40;;;;;;;11.68;100.00;98957.34;1694954;83;21880;-60
2022/10/04 08:08:51;;;;;;;1.65;1.22;;;;;;;11.65;100.00;98954.88;1701279;82;21620;-62
2022/10/04 08:11:38;;;;;;;1.10;1.00;;;;;;;11.62;100.00;98955.05;1679910;84;21488;-61
2022/10/04 08:14:38;;;;;;;1.85;1.00;;;;;;;11.63;100.00;98959.39;1630027;84;21680;-61
2022/10/04 08:17:16;;;;;;;2.52;1.22;;;;;;;11.68;100.00;98954.72;1697921;83;21704;-61
2022/10/04 08:20:03;;;;;;;1.72;1.35;;;;;;;11.70;100.00;98956.78;1688279;83;21798;-61
2022/10/04 08:22:45;;;;;;;2.47;0.90;;;;;;;11.73;100.00;98968.44;1690628;83;21584;-60
2022/10/04 08:25:41;;;;;;;2.20;1.07;;;;;;;11.75;100.00;98971.83;1686585;83;21498;-61
2022/10/04 08:31:25;;;;;;;1.57;1.20;;;;;;;11.79;100.00;98971.18;1688432;83;21677;-61
2022/10/04 08:34:12;;;;;;;1.25;1.07;;;;;;;11.81;100.00;98972.81;1702303;82;21885;-60
2022/10/04 08:37:05;;;;;;;1.45;0.90;;;;;;;11.85;100.00;98977.43;1705054;83;21582;-61
2022/10/04 08:39:59;;;;;;;1.12;0.98;;;;;;;11.88;100.00;98983.38;1699392;82;21001;-62
2022/10/04 08:42:56;;;;;;;0.82;0.82;;;;;;;12.02;100.00;98987.84;1703587;83;21502;-61
2022/10/04 08:45:54;;;;;;;1.10;1.00;;;;;;;12.04;100.00;98986.44;1708294;80;21573;-61
2022/10/04 08:48:45;;;;;;;2.62;0.95;;;;;;;12.06;100.00;98995.94;1689151;83;22061;-61
2022/10/04 08:51:51;;;;;;;1.35;1.15;;;;;;;12.09;100.00;99001.48;1694561;83;21533;-60
2022/10/04 08:55:11;;;;;;;2.45;1.00;;;;;;;12.02;100.00;99007.61;1706389;83;21482;-59
2022/10/04 08:58:23;;;;;;;2.37;1.62;;;;;;;12.01;100.00;99007.69;1696634;82;21570;-61
2022/10/04 09:01:42;;;;;;;1.95;1.32;;;;;;;12.05;100.00;99007.44;1704709;82;21515;-61
2022/10/04 09:04:30;;;;;;;1.77;1.67;;;;;;;12.14;100.00;99007.82;1673620;83;21975;-61
2022/10/04 09:07:02;;;;;;;1.10;1.10;;;;;;;12.16;100.00;99012.05;1691595;82;21454;-61
2022/10/04 09:09:43;;;;;;;4.62;1.55;;;;;;;12.23;100.00;99017.82;1700475;82;21556;-60
2022/10/04 09:12:41;;;;;;;1.20;1.10;;;;;;;12.19;100.00;99024.22;1690474;83;21568;-60
2022/10/04 09:15:46;;;;;;;1.70;1.25;;;;;;;12.18;100.00;99025.98;1695006;82;21427;-60
2022/10/04 09:18:21;;;;;;;;;;;;;;;12.17;100.00;99028.25;1735617;80;22096;-60
2022/10/04 09:21:11;;;;;;;1.22;1.10;;;;;;;12.12;100.00;99025.52;1723381;80;20499;-61
2022/10/04 09:23:58;;;;;;;1.80;1.27;;;;;;;12.18;100.00;99037.00;1724904;80;21069;-61
2022/10/04 09:26:33;;;;;;;4.00;1.98;;;;;;;12.25;100.00;99037.02;1729834;80;21539;-61
2022/10/04 09:29:25;;;;;;;2.35;1.52;;;;;;;12.29;100.00;99045.12;1728681;80;21510;-60
2022/10/04 09:32:47;;;;;;;2.05;1.85;;;;;;;12.39;100.00;99046.73;1732110;80;21788;-61
2022/10/04 09:35:58;;;;;;;2.77;1.80;;;;;;;12.42;100.00;99050.52;1737656;80;21487;-60
2022/10/04 09:39:02;;;;;;;2.77;2.17;;;;;;;12.30;100.00;99047.28;1725146;80;21520;-63
2022/10/04 09:41:52;;;;;;;5.58;3.30;;;;;;;12.17;100.00;99054.61;1726794;80;21538;-61
2022/10/04 09:45:01;;;;;;;3.92;2.72;;;;;;;12.11;100.00;99061.56;1729959;80;21439;-61
2022/10/04 09:47:40;;;;;;;;;;;;;;;12.19;100.00;99061.95;1624428;86;21921;-64
2022/10/04 09:50:53;;;;;;;2.70;1.80;;;;;;;12.21;100.00;99057.91;1627752;86;20464;-61
2022/10/04 09:53:45;;;;;;;4.65;1.80;;;;;;;12.35;100.00;99068.47;1608162;86;21479;-60
2022/10/04 09:56:32;;;;;;;1.60;1.50;;;;;;;12.44;100.00;99067.09;1636652;86;21611;-60
2022/10/04 09:59:20;;;;;;;;;;;;;;;12.46;100.00;99066.05;1609110;86;20983;-61
2022/10/04 10:02:27;;;;;;;3.15;2.00;;;;;;;12.50;100.00;99067.19;1619645;86;21785;-60
2022/10/04 10:05:36;;;;;;;2.72;1.60;;;;;;;12.59;100.00;99071.92;1624871;86;21503;-61
2022/10/04 10:08:19;;;;;;;1.95;1.80;;;;;;;12.61;100.00;99077.47;1635448;86;21058;-61
2022/10/04 10:14:29;;;;;;;2.05;1.47;;;;;;;12.60;100.00;99077.11;1627651;86;21527;-61
2022/10/04 10:17:20;;;;;;;2.72;1.87;;;;;;;12.64;100.00;99084.37;1626765;86;22107;-61
2022/10/04 10:20:16;;;;;;;4.00;1.92;;;;;;;12.54;100.00;99098.55;1609127;86;21085;-60
2022/10/04 10:23:00;;;;;;;1.77;1.40;;;;;;;12.52;100.00;99094.31;1626111;86;21455;-60
2022/10/04 10:25:47;;;;;;;4.60;1.60;;;;;;;12.52;100.00;99099.59;1617015;86;21600;-60
2022/10/04 10:28:41;;;;;;;3.77;1.72;;;;;;;12.52;100.00;99100.42;1639114;86;21534;-60
2022/10/04 10:31:33;;;;;;;4.83;1.77;;;;;;;12.52;100.00;99108.34;1567691;86;21882;-61
2022/10/04 10:34:29;;;;;;;3.80;1.50;;;;;;;12.50;100.00;99105.42;1622426;86;21443;-61
2022/10/04 10:37:15;;;;;;;2.17;1.95;;;;;;;12.48;100.00;99112.10;1623926;86;21553;-62
2022/10/04 10:40:11;;;;;;;5.47;4.03;;;;;;;12.46;100.00;99120.09;1625093;86;20990;-60
2022/10/04 10:43:16;;;;;;;2.50;1.90;;;;;;;12.38;100.00;99124.14;1617716;86;21435;-61
2022/10/04 10:46:04;;;;;;;2.10;1.90;;;;;;;12.50;100.00;99122.09;1630135;85;22041;-60
2022/10/04 10:48:58;;;;;;;3.87;1.75;;;;;;;12.56;100.00;99106.38;1628234;85;21434;-60
2022/10/04 10:51:48;;;;;;;1.72;1.62;;;;;;;12.55;100.00;99117.87;1620230;85;21669;-61
2022/10/04 10:54:57;;;;;;;2.90;1.80;;;;;;;12.52;100.00;99114.09;1641492;85;21574;-62
2022/10/04 10:57:52;;;;;;;2.62;1.42;;;;;;;12.63;100.00;99109.87;1629280;85;21513;-62
2022/10/04 11:00:21;;;;;;;2.25;1.60;;;;;;;12.79;100.00;99111.13;1630003;86;22272;-62
2022/10/04 11:03:16;;;;;;;1.60;1.50;;;;;;;12.83;100.00;99121.88;1634481;85;21559;-63
2022/10/04 11:06:08;;;;;;;3.25;1.67;;;;;;;12.82;100.00;99113.56;1630800;85;21503;-65
2022/10/04 11:09:14;;;;;;;1.60;1.45;;;;;;;12.85;100.00;99113.39;1638065;85;21562;-67
2022/10/04 11:12:03;;;;;;;2.02;1.50;;;;;;;12.99;100.00;99109.06;1617561;85;21645;-67
2022/10/04 11:14:53;;;;;;;2.10;1.40;;;;;;;12.92;100.00;99111.69;1631933;85;21818;-62
2022/10/04 11:17:50;;;;;;;3.02;1.42;;;;;;;12.99;100.00;99108.58;1627155;85;21509;-62
2022/10/04 11:20:50;;;;;;;1.40;1.30;;;;;;;13.12;100.00;99116.59;1626235;86;21533;-63
2022/10/04 11:23:37;;;;;;;1.20;1.10;;;;;;;13.22;100.00;99115.55;1618413;86;21541;-62
2022/10/04 11:26:37;;;;;;;5.65;1.47;;;;;;;13.29;100.00;99121.31;1630819;85;21509;-62
2022/10/04 11:29:34;;;;;;;3.50;1.65;;;;;;;13.31;100.00;99119.45;1635611;85;21805;-62
2022/10/04 11:32:21;;;;;;;2.65;1.70;;;;;;;13.23;100.00;99119.91;1633539;85;21688;-62
2022/10/04 11:35:37;;;;;;;1.52;1.10;;;;;;;13.12;100.00;99116.59;1620723;85;21443;-61
2022/10/04 11:38:26;;;;;;;2.47;1.20;;;;;;;12.96;100.00;99126.39;1642206;85;21133;-61
2022/10/04 11:41:16;;;;;;;5.55;1.35;;;;;;;12.95;100.00;99139.22;1632456;85;21466;-63
2022/10/04 11:44:29;;;;;;;3.25;1.15;;;;;;;13.05;100.00;99129.34;1643151;85;21806;-61
2022/10/04 11:47:06;;;;;;;4.00;1.37;;;;;;;13.09;100.00;99126.05;1623000;85;21444;-61
2022/10/04 11:49:55;;;;;;;2.15;1.47;;;;;;;13.00;100.00;99139.32;1603224;87;21436;-61
2022/10/04 11:52:51;;;;;;;1.40;1.30;;;;;;;13.01;100.00;99130.44;1622347;86;21434;-61
2022/10/04 11:55:47;;;;;;;1.52;1.40;;;;;;;13.01;100.00;99130.44;1609130;86;21581;-63
2022/10/04 11:58:22;;;;;;;3.92;1.10;;;;;;;13.10;100.00;99141.41;1612819;86;21929;-62
2022/10/04 12:00:58;;;;;;;1.07;1.07;;;;;;;13.23;100.00;99140.55;1619729;87;21448;-62
2022/10/04 12:03:56;;;;;;;0.88;0.85;;;;;;;13.34;100.00;99139.08;1615643;86;21596;-61
2022/10/04 12:06:40;;;;;;;1.25;0.98;;;;;;;13.31;100.00;99140.09;1611478;86;21459;-62
2022/10/04 12:09:25;;;;;;;1.20;0.90;;;;;;;13.30;100.00;99130.91;1611227;86;21513;-61
2022/10/04 12:12:36;;;;;;;4.25;1.37;;;;;;;13.27;100.00;99139.88;1620760;86;21790;-64
2022/10/04 12:15:48;;;;;;;1.55;1.32;;;;;;;13.14;100.00;99135.83;1624374;86;21471;-63
2022/10/04 12:19:07;;;;;;;1.30;1.20;;;;;;;13.25;100.00;99147.89;1617738;86;21539;-62
2022/10/04 12:21:41;;;;;;;3.17;1.40;;;;;;;13.44;100.00;99144.14;1608211;87;21482;-61
2022/10/04 12:24:46;;;;;;;2.17;1.45;;;;;;;13.51;100.00;99140.19;1633310;86;21471;-61
2022/10/04 12:27:59;;;;;;;3.10;1.30;;;;;;;13.52;100.00;99146.30;1622278;86;21822;-60
2022/10/04 12:31:09;;;;;;;4.67;1.40;;;;;;;13.52;100.00;99139.22;1616126;86;21534;-62
2022/10/04 12:33:56;;;;;;;4.03;1.37;;;;;;;13.45;100.00;99153.78;1615051;87;21014;-61
2022/10/04 12:37:01;;;;;;;3.13;1.53;;;;;;;13.38;100.00;99151.14;1615181;86;21054;-60
2022/10/04 12:39:51;;;;;;;2.08;1.50;;;;;;;13.40;100.00;99156.69;1616767;87;21566;-60
2022/10/04 12:42:45;;;;;;;3.25;1.60;;;;;;;13.57;100.00;99159.59;1614325;86;21830;-60
2022/10/04 12:45:51;;;;;;;1.67;1.57;;;;;;;13.62;100.00;99150.08;1631667;86;21682;-60
2022/10/04 12:48:34;;;;;;;1.85;1.52;;;;;;;13.58;100.00;99157.80;1609034;86;21467;-59
2022/10/04 12:51:56;;;;;;;1.57;1.47;;;;;;;13.55;100.00;99153.56;1611129;86;21546;-65
2022/10/04 12:54:46;;;;;;;1.80;1.70;;;;;;;13.52;100.00;99156.39;1631478;86;21101;-60
2022/10/04 12:57:27;;;;;;;1.47;1.37;;;;;;;13.37;100.00;99158.67;1623197;86;21649;-61
2022/10/04 13:00:13;;;;;;;1.62;1.52;;;;;;;13.52;100.00;99150.27;1619056;86;21057;-59